createdAt,value
2022-09-07T00:02:30.495Z,4.03
2022-09-07T00:04:56.919Z,2.87
2022-09-07T00:07:30.400Z,4.45
2022-09-07T00:10:03.434Z,7.15
2022-09-07T00:12:36.450Z,2.28
2022-09-07T00:15:11.413Z,3.58
2022-09-07T00:17:37.903Z,5.67
2022-09-07T00:20:14.424Z,2.92
2022-09-07T00:22:40.895Z,7.03
2022-09-07T00:25:14.433Z,6.68
2022-09-07T00:27:41.300Z,7.50
2022-09-07T00:30:16.442Z,4.77
2022-09-07T00:32:50.420Z,3.78
2022-09-07T00:35:16.961Z,3.88
2022-09-07T00:37:50.430Z,4.47
2022-09-07T00:40:17.029Z,3.50
2022-09-07T00:42:50.433Z,2.53
2022-09-07T00:45:19.481Z,4.00
2022-09-07T00:48:04.408Z,2.90
2022-09-07T00:50:36.409Z,4.60
2022-09-07T00:53:13.432Z,2.22
2022-09-07T00:55:42.543Z,3.20
2022-09-07T00:58:10.232Z,3.03
2022-09-07T01:00:44.407Z,3.90
2022-09-07T01:03:11.485Z,2.75
2022-09-07T01:05:52.421Z,2.35
2022-09-07T01:08:18.987Z,3.60
2022-09-07T01:10:54.442Z,2.78
2022-09-07T01:13:20.857Z,1.83
2022-09-07T01:16:14.493Z,3.05
2022-09-07T01:19:16.479Z,1.88
2022-09-07T01:22:24.570Z,1.60
2022-09-07T01:25:07.035Z,2.83
2022-09-07T01:27:56.407Z,4.30
2022-09-07T01:30:24.495Z,2.30
2022-09-07T01:33:16.405Z,3.05
2022-09-07T01:36:01.114Z,1.60
2022-09-07T01:39:08.386Z,2.75
2022-09-07T01:41:57.451Z,3.92
2022-09-07T01:44:40.409Z,1.95
2022-09-07T01:47:17.995Z,2.92
2022-09-07T01:50:35.412Z,5.23
2022-09-07T01:53:09.549Z,2.28
2022-09-07T01:56:06.408Z,3.60
2022-09-07T01:58:46.394Z,5.85
2022-09-07T02:01:28.521Z,1.50
2022-09-07T02:04:16.391Z,4.93
2022-09-07T02:06:49.002Z,3.05
2022-09-07T02:09:40.400Z,3.85
2022-09-07T02:12:15.856Z,3.72
2022-09-07T02:14:54.405Z,4.15
2022-09-07T02:17:38.408Z,2.47
2022-09-07T02:20:11.270Z,2.88
2022-09-07T02:22:48.415Z,2.13
2022-09-07T02:25:21.924Z,3.28
2022-09-07T02:28:02.388Z,2.83
2022-09-07T02:30:42.473Z,4.17
2022-09-07T02:33:09.395Z,2.72
2022-09-07T02:35:43.405Z,2.95
2022-09-07T02:38:09.991Z,2.90
2022-09-07T02:40:36.355Z,2.90
2022-09-07T02:43:14.385Z,2.67
2022-09-07T02:46:08.469Z,1.40
2022-09-07T02:49:06.393Z,2.88
2022-09-07T02:51:51.786Z,1.80
2022-09-07T02:54:34.393Z,3.88
2022-09-07T02:57:08.406Z,2.17
2022-09-07T02:59:52.402Z,3.35
2022-09-07T03:02:20.808Z,1.23
2022-09-07T03:05:18.407Z,2.45
2022-09-07T03:07:51.554Z,2.97
2022-09-07T03:10:25.386Z,2.40
2022-09-07T03:12:52.011Z,4.22
2022-09-07T03:15:21.629Z,1.65
2022-09-07T03:17:54.420Z,2.75
2022-09-07T03:20:22.269Z,3.20
2022-09-07T03:23:00.383Z,4.30
2022-09-07T03:25:33.409Z,5.72
2022-09-07T03:28:06.629Z,13.02
2022-09-07T03:30:50.494Z,3.28
2022-09-07T03:33:17.474Z,5.07
2022-09-07T03:36:05.376Z,2.10
2022-09-07T03:38:31.989Z,2.47
2022-09-07T03:41:10.371Z,3.17
2022-09-07T03:43:36.782Z,3.00
2022-09-07T03:46:12.425Z,2.92
2022-09-07T03:48:39.403Z,1.43
2022-09-07T03:51:08.299Z,2.50
2022-09-07T03:53:44.382Z,4.10
2022-09-07T03:56:16.157Z,2.63
2022-09-07T03:58:50.386Z,2.35
2022-09-07T04:01:19.457Z,3.50
2022-09-07T04:03:47.086Z,3.78
2022-09-07T04:06:20.422Z,7.20
2022-09-07T04:08:47.062Z,2.63
2022-09-07T04:11:16.924Z,2.20
2022-09-07T04:13:50.368Z,5.80
2022-09-07T04:16:28.477Z,2.78
2022-09-07T04:18:54.876Z,2.33
2022-09-07T04:21:30.362Z,3.20
2022-09-07T04:23:56.812Z,3.22
2022-09-07T04:26:29.025Z,1.93
2022-09-07T04:29:02.362Z,2.20
2022-09-07T04:31:42.389Z,3.67
2022-09-07T04:34:15.077Z,3.30
2022-09-07T04:36:48.383Z,2.75
2022-09-07T04:39:14.831Z,1.97
2022-09-07T04:41:41.219Z,5.25
2022-09-07T04:44:16.979Z,2.95
2022-09-07T04:46:50.373Z,2.42
2022-09-07T04:52:18.428Z,2.47
2022-09-07T04:54:49.571Z,2.50
2022-09-07T04:57:16.333Z,3.85
2022-09-07T04:59:50.413Z,2.42
2022-09-07T05:02:17.466Z,1.67
2022-09-07T05:04:43.908Z,3.50
2022-09-07T05:07:16.363Z,3.95
2022-09-07T05:09:42.807Z,4.15
2022-09-07T05:12:16.377Z,7.05
2022-09-07T05:14:42.890Z,4.72
2022-09-07T05:17:09.385Z,3.97
2022-09-07T05:19:42.373Z,1.88
2022-09-07T05:22:08.812Z,2.42
2022-09-07T05:24:43.387Z,3.80
2022-09-07T05:27:16.366Z,3.35
2022-09-07T05:32:36.416Z,4.07
2022-09-07T05:35:10.386Z,2.00
2022-09-07T05:37:36.763Z,6.25
2022-09-07T05:40:10.470Z,3.75
2022-09-07T05:42:37.459Z,4.50
2022-09-07T05:45:11.369Z,2.08
2022-09-07T05:47:44.383Z,2.22
2022-09-07T05:50:11.456Z,3.10
2022-09-07T05:52:44.383Z,2.90
2022-09-07T05:55:28.870Z,2.80
2022-09-07T05:58:04.349Z,2.00
2022-09-07T06:00:38.411Z,1.98
2022-09-07T06:03:12.655Z,3.95
2022-09-07T06:05:46.368Z,3.42
2022-09-07T06:08:20.539Z,6.73
2022-09-07T06:10:47.083Z,3.67
2022-09-07T06:13:13.531Z,3.38
2022-09-07T06:15:46.384Z,2.63
2022-09-07T06:18:19.370Z,3.65
2022-09-07T06:20:45.754Z,4.83
2022-09-07T06:23:12.121Z,4.97
2022-09-07T06:25:45.340Z,4.47
2022-09-07T06:28:18.359Z,4.38
2022-09-07T06:30:44.794Z,3.35
2022-09-07T06:33:21.930Z,5.20
2022-09-07T06:36:03.273Z,5.93
2022-09-07T06:38:38.389Z,3.42
2022-09-07T06:44:20.382Z,3.45
2022-09-07T06:49:36.390Z,6.30
2022-09-07T06:52:03.824Z,4.80
2022-09-07T06:57:24.363Z,5.75
2022-09-07T06:59:50.792Z,5.73
2022-09-07T07:02:24.362Z,6.72
2022-09-07T07:04:58.361Z,4.55
2022-09-07T07:07:24.763Z,5.22
2022-09-07T07:09:51.219Z,4.80
2022-09-07T07:14:49.645Z,5.78
2022-09-07T07:17:22.354Z,4.97
2022-09-07T07:19:55.354Z,5.68
2022-09-07T07:22:45.494Z,8.05
2022-09-07T07:25:15.378Z,4.33
2022-09-07T07:27:42.314Z,4.85
2022-09-07T07:30:22.375Z,4.75
2022-09-07T07:32:48.777Z,4.72
2022-09-07T07:35:22.314Z,5.50
2022-09-07T07:37:52.369Z,5.10
2022-09-07T07:40:30.331Z,7.03
2022-09-07T07:42:57.462Z,5.00
2022-09-07T07:48:16.693Z,6.78
2022-09-07T07:50:50.314Z,5.23
2022-09-07T07:53:41.568Z,7.03
2022-09-07T07:56:10.102Z,7.57
2022-09-07T07:58:44.314Z,6.82
2022-09-07T08:01:13.340Z,9.88
2022-09-07T08:03:50.334Z,6.27
2022-09-07T08:06:18.870Z,5.75
2022-09-07T08:08:52.310Z,7.57
2022-09-07T08:11:20.550Z,6.60
2022-09-07T08:13:58.283Z,7.72
2022-09-07T08:16:31.341Z,8.23
2022-09-07T08:19:04.315Z,5.78
2022-09-07T08:21:30.804Z,7.63
2022-09-07T08:23:57.232Z,8.50
2022-09-07T08:26:30.312Z,7.03
2022-09-07T08:29:12.306Z,9.57
2022-09-07T08:31:46.345Z,10.68
2022-09-07T08:34:12.734Z,10.15
2022-09-07T08:36:46.304Z,8.48
2022-09-07T08:39:13.115Z,8.20
2022-09-07T08:42:04.315Z,12.43
2022-09-07T08:44:48.322Z,10.07
2022-09-07T08:47:42.952Z,9.48
2022-09-07T08:50:26.300Z,7.22
2022-09-07T08:53:00.040Z,8.55
2022-09-07T08:55:44.311Z,9.53
2022-09-07T08:58:32.523Z,9.65
2022-09-07T09:01:34.048Z,9.02
2022-09-07T09:04:18.229Z,8.02
2022-09-07T09:07:03.374Z,8.45
2022-09-07T09:09:51.865Z,7.87
2022-09-07T09:12:35.570Z,7.95
2022-09-07T09:15:22.333Z,8.02
2022-09-07T09:18:14.635Z,7.63
2022-09-07T09:20:48.647Z,8.07
2022-09-07T09:23:24.350Z,8.27
2022-09-07T09:26:01.551Z,7.85
2022-09-07T09:28:34.553Z,8.18
2022-09-07T09:31:01.237Z,7.45
2022-09-07T09:33:28.832Z,9.77
2022-09-07T09:36:06.331Z,8.17
2022-09-07T09:38:43.490Z,8.10
2022-09-07T09:41:18.281Z,8.77
2022-09-07T09:44:02.311Z,9.02
2022-09-07T09:46:32.478Z,6.60
2022-09-07T09:49:20.314Z,7.93
2022-09-07T09:55:03.292Z,7.45
2022-09-07T10:01:27.703Z,7.82
2022-09-07T10:06:28.297Z,7.05
2022-09-07T10:08:57.776Z,7.78
2022-09-07T10:12:08.221Z,6.53
2022-09-07T10:14:46.689Z,6.13
2022-09-07T10:17:50.297Z,6.93
2022-09-07T10:20:16.636Z,5.80
2022-09-07T10:22:58.303Z,6.53
2022-09-07T11:00:07.894Z,2.97
2022-09-07T11:06:02.484Z,2.65
2022-09-07T11:14:29.310Z,5.55
2022-09-07T11:16:59.673Z,2.60
2022-09-07T11:19:36.363Z,4.70
2022-09-07T11:22:19.498Z,2.50
2022-09-07T11:25:31.608Z,4.83
2022-09-07T11:28:08.910Z,3.65
2022-09-07T11:30:42.899Z,4.28
2022-09-07T11:33:23.114Z,4.68
2022-09-07T11:36:01.123Z,2.95
2022-09-07T11:38:46.778Z,3.27
2022-09-07T11:41:22.173Z,3.33
2022-09-07T11:44:00.721Z,6.28
2022-09-07T11:46:40.690Z,6.03
2022-09-07T11:49:15.559Z,2.15
2022-09-07T11:51:53.698Z,4.17
2022-09-07T11:54:32.466Z,3.30
2022-09-07T11:57:28.798Z,3.40
2022-09-07T12:00:00.806Z,5.50
2022-09-07T12:03:00.912Z,3.22
2022-09-07T12:05:33.717Z,4.00
2022-09-07T12:08:32.484Z,4.95
2022-09-07T12:11:22.614Z,4.65
2022-09-07T12:13:58.755Z,4.18
2022-09-07T12:16:45.979Z,4.60
2022-09-07T12:19:20.587Z,3.27
2022-09-07T12:21:54.402Z,3.17
2022-09-07T12:24:32.744Z,5.38
2022-09-07T12:27:00.722Z,4.28
2022-09-07T12:29:29.566Z,4.13
2022-09-07T12:32:00.095Z,6.33
2022-09-07T12:34:35.063Z,3.38
2022-09-07T12:37:08.911Z,6.55
2022-09-07T12:39:43.503Z,5.53
2022-09-07T12:42:34.113Z,4.65
2022-09-07T12:45:28.272Z,3.30
2022-09-07T12:48:04.348Z,4.22
2022-09-07T12:50:39.264Z,4.05
2022-09-07T12:53:40.791Z,2.00
2022-09-07T12:56:32.035Z,6.38
2022-09-07T12:59:18.930Z,5.60
2022-09-07T13:01:59.275Z,3.63
2022-09-07T13:04:43.995Z,5.90
2022-09-07T13:07:22.630Z,4.55
2022-09-07T13:10:00.511Z,3.25
2022-09-07T13:12:54.695Z,3.63
2022-09-07T13:15:49.569Z,5.28
2022-09-07T13:18:28.537Z,4.38
2022-09-07T13:21:10.939Z,3.63
2022-09-07T13:23:49.590Z,5.90
2022-09-07T13:26:53.633Z,4.97
2022-09-07T13:29:36.710Z,4.68
2022-09-07T13:35:20.291Z,2.22
2022-09-07T13:38:02.037Z,4.18
2022-09-07T13:40:39.069Z,3.97
2022-09-07T13:43:12.164Z,3.10
2022-09-07T13:45:53.864Z,8.25
2022-09-07T13:48:36.884Z,2.97
2022-09-07T13:51:34.481Z,3.55
2022-09-07T13:54:03.889Z,5.57
2022-09-07T13:56:45.045Z,4.22
2022-09-07T13:59:19.753Z,3.85
2022-09-07T14:01:48.011Z,2.83
2022-09-07T14:04:41.327Z,2.60
2022-09-07T14:07:25.428Z,4.13
2022-09-07T14:10:06.949Z,3.80
2022-09-07T14:12:43.182Z,2.72
2022-09-07T14:15:34.316Z,4.18
2022-09-07T14:18:13.122Z,3.30
2022-09-07T14:20:49.483Z,3.77
2022-09-07T14:23:23.955Z,2.10
2022-09-07T14:26:19.944Z,1.98
2022-09-07T14:28:48.916Z,1.67
2022-09-07T14:31:18.013Z,3.42
2022-09-07T14:33:55.377Z,1.90
2022-09-07T14:36:43.975Z,2.22
2022-09-07T14:39:13.440Z,2.95
2022-09-07T14:41:42.977Z,1.17
2022-09-07T14:44:37.636Z,2.50
2022-09-07T14:47:30.432Z,3.13
2022-09-07T14:50:05.322Z,2.97
2022-09-07T14:52:42.307Z,1.20
2022-09-07T14:55:27.915Z,3.22
2022-09-07T14:58:13.503Z,2.28
2022-09-07T15:00:42.286Z,3.00
2022-09-07T15:03:32.172Z,1.52
2022-09-07T15:06:01.468Z,1.85
2022-09-07T15:08:48.722Z,2.97
2022-09-07T15:11:39.504Z,1.83
2022-09-07T15:14:20.323Z,1.03
2022-09-07T15:19:45.446Z,4.25
2022-09-07T15:22:13.347Z,5.07
2022-09-07T15:24:39.885Z,4.03
2022-09-07T15:27:26.914Z,2.30
2022-09-07T15:29:53.364Z,3.25
2022-09-07T15:32:20.002Z,3.15
2022-09-07T15:34:46.561Z,2.65
2022-09-07T15:39:59.442Z,4.60
2022-09-07T15:45:13.412Z,2.00
2022-09-07T15:47:47.161Z,1.35
2022-09-07T15:50:17.183Z,3.03
2022-09-07T15:52:46.439Z,2.33
2022-09-07T15:55:13.562Z,1.52
2022-09-07T15:58:10.600Z,3.97
2022-09-07T16:00:27.113Z,2.40
2022-09-07T16:03:09.417Z,2.55
2022-09-07T16:05:40.653Z,2.17
2022-09-07T16:10:55.307Z,3.78
2022-09-07T16:13:24.122Z,2.33
2022-09-07T16:15:50.972Z,2.00
2022-09-07T16:18:18.386Z,4.57
2022-09-07T16:20:45.870Z,2.38
2022-09-07T16:23:15.227Z,2.67
2022-09-07T16:25:43.134Z,2.22
2022-09-07T16:28:10.240Z,2.55
2022-09-07T16:30:40.431Z,3.37
2022-09-07T16:33:07.375Z,3.75
2022-09-07T16:35:33.901Z,3.28
2022-09-07T16:40:46.731Z,2.47
2022-09-07T16:43:13.130Z,4.80
2022-09-07T16:48:25.939Z,2.13
2022-09-07T16:50:58.944Z,2.50
2022-09-07T16:53:29.199Z,2.53
2022-09-07T16:56:02.460Z,2.87
2022-09-07T16:58:38.296Z,2.35
2022-09-07T17:01:11.604Z,6.03
2022-09-07T17:03:38.895Z,2.97
2022-09-07T17:06:08.007Z,5.43
2022-09-07T17:08:35.912Z,3.00
2022-09-07T17:11:08.404Z,3.35
2022-09-07T17:13:37.011Z,4.28
2022-09-07T17:16:07.900Z,4.03
2022-09-07T17:21:22.090Z,4.87
2022-09-07T17:23:54.814Z,6.18
2022-09-07T17:26:23.318Z,8.35
2022-09-07T17:28:54.152Z,2.63
2022-09-07T17:34:13.233Z,6.47
2022-09-07T17:36:40.367Z,8.38
2022-09-07T17:39:16.401Z,39.20
2022-09-07T17:41:44.150Z,34.90
2022-09-07T17:44:10.900Z,10.25
2022-09-07T17:46:37.371Z,4.23
2022-09-07T17:49:05.145Z,6.60
2022-09-07T17:51:32.557Z,6.55
2022-09-07T17:54:02.514Z,2.22
2022-09-07T17:56:29.900Z,2.63
2022-09-07T18:00:10.735Z,2.27
2022-09-07T18:01:43.347Z,2.45
2022-09-07T18:04:10.996Z,2.72
2022-09-07T18:06:37.639Z,2.13
2022-09-07T18:09:05.311Z,2.80
2022-09-07T18:11:49.043Z,8.40
2022-09-07T18:14:16.798Z,1.70
2022-09-07T18:16:45.097Z,3.25
2022-09-07T18:19:12.332Z,2.95
2022-09-07T18:21:41.234Z,3.22
2022-09-07T18:24:23.440Z,1.73
2022-09-07T18:26:52.542Z,3.50
2022-09-07T18:29:29.866Z,3.22
2022-09-07T18:31:58.876Z,3.28
2022-09-07T18:34:25.611Z,3.33
2022-09-07T18:36:52.117Z,2.63
2022-09-07T18:39:18.686Z,3.33
2022-09-07T18:41:45.032Z,3.58
2022-09-07T18:46:57.874Z,5.60
2022-09-07T18:49:25.052Z,2.13
2022-09-07T18:54:38.932Z,2.38
2022-09-07T18:57:06.700Z,3.28
2022-09-07T18:59:33.281Z,3.75
2022-09-07T19:02:03.957Z,3.07
2022-09-07T19:07:20.277Z,3.45
2022-09-07T19:09:48.261Z,8.77
2022-09-07T19:12:15.068Z,6.13
2022-09-07T19:14:42.154Z,1.40
2022-09-07T19:17:10.743Z,3.58
2022-09-07T19:19:38.002Z,4.97
2022-09-07T19:22:04.408Z,4.10
2022-09-07T19:24:31.770Z,1.88
2022-09-07T19:27:00.430Z,1.97
2022-09-07T19:29:27.631Z,6.35
2022-09-07T19:32:11.881Z,4.22
2022-09-07T19:34:41.006Z,3.85
2022-09-07T19:37:09.305Z,3.08
2022-09-07T19:39:35.697Z,5.77
2022-09-07T19:42:04.179Z,2.08
2022-09-07T19:44:30.972Z,5.90
2022-09-07T19:47:00.021Z,7.28
2022-09-07T19:49:27.015Z,2.55
2022-09-07T19:51:54.644Z,3.17
2022-09-07T19:54:21.051Z,3.58
2022-09-07T19:56:47.422Z,3.25
2022-09-07T19:59:14.387Z,1.60
2022-09-07T20:01:45.704Z,6.45
2022-09-07T20:04:18.939Z,1.67
2022-09-07T20:06:47.996Z,1.58
2022-09-07T20:09:14.321Z,6.03
2022-09-07T20:11:46.024Z,2.65
2022-09-07T20:14:12.654Z,4.00
2022-09-07T20:16:40.024Z,4.70
2022-09-07T20:19:07.448Z,3.03
2022-09-07T20:21:34.271Z,4.32
2022-09-07T20:24:00.667Z,4.30
2022-09-07T20:26:27.271Z,5.05
2022-09-07T20:29:05.890Z,3.60
2022-09-07T20:31:41.635Z,3.63
2022-09-07T20:34:09.415Z,3.83
2022-09-07T20:36:36.166Z,2.90
2022-09-07T20:39:02.532Z,4.88
2022-09-07T20:41:31.424Z,3.63
2022-09-07T20:44:00.217Z,5.78
2022-09-07T20:46:28.369Z,1.92
2022-09-07T20:48:54.834Z,2.75
2022-09-07T20:51:22.235Z,3.63
2022-09-07T20:53:49.621Z,4.03
2022-09-07T20:56:24.423Z,3.63
2022-09-07T20:58:55.952Z,4.07
2022-09-07T21:01:23.419Z,3.88
2022-09-07T21:03:52.743Z,4.13
2022-09-07T21:06:20.533Z,5.97
2022-09-07T21:08:50.783Z,4.55
2022-09-07T21:11:22.922Z,5.05
2022-09-07T21:14:00.885Z,4.35
2022-09-07T21:16:28.014Z,5.38
2022-09-07T21:18:58.691Z,7.67
2022-09-07T21:21:27.194Z,3.90
2022-09-07T21:24:03.695Z,5.15
2022-09-07T21:26:32.093Z,4.10
2022-09-07T21:29:04.919Z,5.50
2022-09-07T21:31:33.632Z,5.00
2022-09-07T21:34:01.910Z,2.75
2022-09-07T21:36:29.381Z,3.00
2022-09-07T21:38:56.180Z,4.65
2022-09-07T21:41:24.545Z,3.15
2022-09-07T21:43:58.574Z,4.83
2022-09-07T21:46:26.081Z,4.35
2022-09-07T21:48:52.732Z,5.45
2022-09-07T21:51:19.109Z,5.90
2022-09-07T21:53:45.654Z,3.50
2022-09-07T21:56:14.092Z,5.17
2022-09-07T21:58:40.837Z,3.70
2022-09-07T22:01:12.311Z,6.15
2022-09-07T22:03:40.391Z,9.05
2022-09-07T22:06:08.122Z,4.63
2022-09-07T22:08:39.463Z,6.77
2022-09-07T22:11:11.565Z,4.28
2022-09-07T22:13:38.268Z,7.55
2022-09-07T22:16:06.241Z,5.22
2022-09-07T22:18:33.052Z,4.38
2022-09-07T22:21:10.732Z,3.03
2022-09-07T22:23:39.509Z,5.28
2022-09-07T22:26:07.850Z,4.63
2022-09-07T22:28:35.438Z,4.10
2022-09-07T22:31:17.253Z,4.25
2022-09-07T22:33:45.456Z,5.80
2022-09-07T22:36:15.347Z,6.72
2022-09-07T22:38:43.497Z,4.43
2022-09-07T22:41:12.475Z,4.65
2022-09-07T22:43:39.343Z,4.97
2022-09-07T22:46:07.053Z,3.87
2022-09-07T22:48:33.921Z,4.95
2022-09-07T22:51:01.250Z,9.65
2022-09-07T22:53:29.964Z,6.43
2022-09-07T22:55:56.999Z,5.35
2022-09-07T22:58:23.840Z,7.43
2022-09-07T23:00:51.294Z,8.40
2022-09-07T23:03:18.543Z,8.57
2022-09-07T23:05:44.941Z,7.47
2022-09-07T23:08:11.866Z,5.47
2022-09-07T23:10:39.241Z,7.23
2022-09-07T23:13:05.906Z,6.32
2022-09-07T23:15:35.879Z,9.75
2022-09-07T23:18:02.252Z,8.32
2022-09-07T23:20:28.649Z,12.50
2022-09-07T23:22:55.112Z,6.13
2022-09-07T23:25:21.489Z,7.43
2022-09-07T23:27:47.936Z,8.48
2022-09-07T23:30:14.609Z,4.95
2022-09-07T23:32:41.220Z,6.63
2022-09-07T23:35:08.237Z,5.13
2022-09-07T23:37:34.645Z,7.05
2022-09-07T23:40:01.185Z,11.88
2022-09-07T23:42:27.790Z,6.47
2022-09-07T23:44:54.184Z,7.47
2022-09-07T23:47:20.542Z,5.60
2022-09-07T23:49:47.057Z,6.35
2022-09-07T23:52:13.459Z,6.93
2022-09-07T23:54:39.932Z,9.02
2022-09-07T23:57:06.292Z,6.40
2022-09-07T23:59:33.840Z,7.77
